Time;durP1;ratioP1;P1;durP2;ratioP2;P2;SDS_P1;SDS_P2;PMS_P1;PMS_P2;Temp;Humidity;BMP_temperature;BMP_pressure;BME280_temperature;BME280_humidity;BME280_pressure;Samples;Min_cycle;Max_cycle;Signal;HPM_P1;HPM_P2
2021/06/15 00:02:06;;;;;;;7.10;4.63;;;;;;;19.02;62.59;100606.75;5009521;28;20057;-59
2021/06/15 00:04:33;;;;;;;5.05;4.07;;;;;;;19.00;62.14;100600.66;5005033;28;20060;-58
2021/06/15 00:06:59;;;;;;;8.95;4.70;;;;;;;18.96;62.91;100591.13;5011822;28;20049;-58
2021/06/15 00:09:26;;;;;;;7.43;4.55;;;;;;;18.93;62.91;100594.88;5005081;28;20064;-60
2021/06/15 00:11:52;;;;;;;7.47;4.47;;;;;;;18.92;62.64;100595.00;5013702;28;20144;-58
2021/06/15 00:14:19;;;;;;;5.78;4.10;;;;;;;18.89;63.03;100597.91;5010158;28;20893;-61
2021/06/15 00:16:46;;;;;;;7.10;4.43;;;;;;;18.85;63.59;100601.84;5017778;28;20053;-61
2021/06/15 00:19:12;;;;;;;9.25;4.75;;;;;;;18.89;63.50;100606.81;5015979;28;20068;-61
2021/06/15 00:21:39;;;;;;;6.30;4.70;;;;;;;18.87;63.49;100605.25;5016754;28;20060;-58
2021/06/15 00:24:06;;;;;;;7.00;4.45;;;;;;;18.87;63.94;100613.31;5018415;28;20136;-57
2021/06/15 00:26:33;;;;;;;6.60;4.57;;;;;;;18.86;64.13;100606.25;5016051;28;20530;-61
2021/06/15 00:28:59;;;;;;;7.57;4.90;;;;;;;18.83;63.98;100593.91;5017686;28;20045;-60
2021/06/15 00:31:27;;;;;;;6.88;5.20;;;;;;;18.81;64.10;100605.72;5017091;28;20053;-56
2021/06/15 00:33:54;;;;;;;7.13;5.40;;;;;;;18.80;64.73;100599.50;5011901;28;20060;-58
2021/06/15 00:36:21;;;;;;;6.57;4.65;;;;;;;18.79;64.80;100602.31;5011797;28;20049;-57
2021/06/15 00:38:47;;;;;;;7.55;5.03;;;;;;;18.78;64.74;100600.59;5017137;28;20037;-58
2021/06/15 00:41:14;;;;;;;10.27;4.70;;;;;;;18.72;64.89;100590.38;5015893;28;20051;-58
2021/06/15 00:43:40;;;;;;;7.15;5.20;;;;;;;18.66;65.46;100593.50;5015655;28;20057;-58
2021/06/15 00:46:07;;;;;;;7.68;4.78;;;;;;;18.64;65.77;100592.78;5016857;28;20045;-59
2021/06/15 00:48:36;;;;;;;11.32;5.43;;;;;;;18.64;65.47;100595.44;5017722;28;20096;-61
2021/06/15 00:51:04;;;;;;;8.35;5.20;;;;;;;18.63;65.95;100591.06;4999987;28;20053;-59
2021/06/15 00:53:35;;;;;;;8.68;5.18;;;;;;;18.64;66.05;100592.78;5012291;28;20083;-59
2021/06/15 00:56:04;;;;;;;8.68;5.25;;;;;;;18.63;66.38;100588.38;5018668;28;20060;-62
2021/06/15 00:58:31;;;;;;;8.00;5.40;;;;;;;18.58;66.31;100588.69;5016850;28;20057;-60
2021/06/15 01:00:57;;;;;;;9.15;5.53;;;;;;;18.52;66.95;100590.03;5015337;28;20057;-59
2021/06/15 01:03:27;;;;;;;7.30;5.43;;;;;;;18.45;67.08;100596.81;5012654;28;20053;-58
2021/06/15 01:05:55;;;;;;;6.05;5.32;;;;;;;18.42;67.38;100586.34;5014043;28;20053;-62
2021/06/15 01:08:36;;;;;;;7.38;5.57;;;;;;;18.40;67.55;100585.63;5011001;28;20096;-58
2021/06/15 01:11:08;;;;;;;9.60;5.38;;;;;;;18.39;67.75;100596.47;5012883;28;20511;-58
2021/06/15 01:13:53;;;;;;;8.65;5.60;;;;;;;18.30;68.09;100589.97;5009448;28;20049;-59
2021/06/15 01:16:23;;;;;;;9.13;5.30;;;;;;;18.29;68.21;100595.44;5015792;28;20049;-60
2021/06/15 01:19:11;;;;;;;9.35;5.60;;;;;;;18.22;68.44;100601.28;5005113;28;20130;-60
2021/06/15 01:21:56;;;;;;;6.78;5.60;;;;;;;18.18;69.15;100596.25;5008399;28;20050;-60
2021/06/15 01:24:34;;;;;;;10.43;5.72;;;;;;;18.19;69.19;100604.19;5018654;28;20056;-61
2021/06/15 01:27:26;;;;;;;8.18;5.75;;;;;;;18.15;69.17;100604.50;5009650;28;20060;-60
2021/06/15 01:29:57;;;;;;;7.13;5.50;;;;;;;18.08;69.39;100600.59;4993139;28;20721;-61
2021/06/15 01:32:28;;;;;;;8.75;5.70;;;;;;;18.02;70.07;100593.00;5014716;28;21765;-61
2021/06/15 01:34:55;;;;;;;12.15;5.85;;;;;;;18.03;70.41;100597.41;5006106;28;20050;-61
2021/06/15 01:37:31;;;;;;;8.73;5.20;;;;;;;18.01;70.11;100593.97;5016155;28;20057;-61
2021/06/15 01:40:08;;;;;;;8.88;5.40;;;;;;;18.01;70.38;100594.84;4998194;28;20050;-58
2021/06/15 01:42:39;;;;;;;6.65;5.45;;;;;;;18.01;70.54;100591.28;5006213;28;20100;-59
2021/06/15 01:45:17;;;;;;;8.43;5.85;;;;;;;17.97;70.55;100595.16;5017711;28;20385;-58
2021/06/15 01:47:54;;;;;;;6.78;5.38;;;;;;;17.92;70.74;100589.31;5010016;28;21860;-60
2021/06/15 01:50:22;;;;;;;7.55;5.22;;;;;;;17.90;71.10;100591.25;5011705;28;20140;-59
2021/06/15 01:52:52;;;;;;;8.77;5.50;;;;;;;17.85;70.85;100596.94;5000255;28;20142;-59
2021/06/15 01:55:22;;;;;;;9.20;5.60;;;;;;;17.80;70.95;100594.59;5006333;28;20136;-62
2021/06/15 01:57:51;;;;;;;9.35;5.45;;;;;;;17.74;71.21;100600.41;5017188;28;20057;-56
2021/06/15 02:00:18;;;;;;;7.15;5.57;;;;;;;17.73;71.02;100600.53;5010351;28;20061;-59
2021/06/15 02:02:48;;;;;;;6.72;5.50;;;;;;;17.68;71.36;100600.84;5013289;28;20050;-59
2021/06/15 02:05:22;;;;;;;9.80;5.70;;;;;;;17.68;71.54;100600.84;5012958;28;20066;-57
2021/06/15 02:07:51;;;;;;;8.20;5.38;;;;;;;17.67;71.57;100607.19;5007300;28;20053;-62
2021/06/15 02:10:19;;;;;;;10.23;5.65;;;;;;;17.65;71.59;100603.75;5018188;28;20056;-58
2021/06/15 02:12:49;;;;;;;9.10;5.40;;;;;;;17.58;71.73;100601.63;5018126;28;20064;-59
2021/06/15 02:15:17;;;;;;;9.10;5.60;;;;;;;17.47;71.80;100600.56;5017578;28;20049;-58
2021/06/15 02:17:48;;;;;;;7.28;5.28;;;;;;;17.38;72.09;100603.06;5018394;28;21550;-59
2021/06/15 02:20:16;;;;;;;10.02;5.25;;;;;;;17.29;72.87;100593.03;5011659;28;20081;-59
2021/06/15 02:22:47;;;;;;;7.68;5.15;;;;;;;17.23;72.95;100591.63;5005758;28;20060;-60
2021/06/15 02:25:21;;;;;;;9.25;4.95;;;;;;;17.20;72.94;100594.50;5005570;28;20050;-55
2021/06/15 02:27:47;;;;;;;7.93;5.18;;;;;;;17.16;73.22;100588.50;4999976;28;20049;-56
2021/06/15 02:30:14;;;;;;;6.75;5.07;;;;;;;17.16;73.45;100588.50;5013245;28;20048;-58
2021/06/15 02:32:43;;;;;;;7.90;5.15;;;;;;;17.17;73.08;100590.22;5007933;28;20432;-57
2021/06/15 02:35:11;;;;;;;6.97;5.43;;;;;;;17.13;73.41;100596.78;5014109;28;20083;-59
2021/06/15 02:38:07;;;;;;;7.30;5.18;;;;;;;17.12;73.77;100589.72;5006602;28;20091;-61
2021/06/15 02:40:34;;;;;;;9.07;5.10;;;;;;;17.16;73.77;100593.00;4998116;28;20053;-59
2021/06/15 02:43:01;;;;;;;6.43;4.72;;;;;;;17.19;73.85;100596.34;5013040;28;20503;-56
2021/06/15 02:45:32;;;;;;;7.53;5.40;;;;;;;17.18;73.88;100594.63;5009287;28;20049;-56
2021/06/15 02:48:04;;;;;;;5.88;4.53;;;;;;;17.18;73.85;100597.28;5013031;28;20053;-61
2021/06/15 02:50:34;;;;;;;6.55;5.20;;;;;;;17.19;73.77;100599.00;5008570;28;20053;-58
2021/06/15 02:53:05;;;;;;;5.90;5.25;;;;;;;17.17;73.37;100602.75;5010807;28;20049;-61
2021/06/15 02:55:38;;;;;;;6.82;5.25;;;;;;;17.03;73.76;100595.69;5013535;28;20056;-59
2021/06/15 02:58:09;;;;;;;7.85;5.35;;;;;;;16.90;74.13;100594.88;5008650;28;20152;-60
2021/06/15 03:00:36;;;;;;;6.65;4.82;;;;;;;16.88;74.58;100603.94;5007779;28;20060;-58
2021/06/15 03:03:06;;;;;;;8.60;5.32;;;;;;;16.89;74.88;100605.66;5012231;28;20580;-58
2021/06/15 03:05:34;;;;;;;;;;;;;;;16.89;74.54;100597.63;5003995;28;20068;-59
2021/06/15 03:08:00;;;;;;;9.00;5.18;;;;;;;16.84;74.35;100606.00;5016710;28;19920;-58
2021/06/15 03:10:28;;;;;;;6.63;5.22;;;;;;;16.81;74.53;100606.22;5006779;28;20053;-59
2021/06/15 03:13:23;;;;;;;10.00;5.10;;;;;;;16.76;74.63;100603.84;4994186;28;20421;-63
2021/06/15 03:15:52;;;;;;;10.10;5.22;;;;;;;16.71;74.80;100610.47;5013855;28;20045;-60
2021/06/15 03:18:31;;;;;;;7.57;5.57;;;;;;;16.66;75.08;100605.47;4992581;28;20140;-57
2021/06/15 03:21:01;;;;;;;9.25;5.65;;;;;;;16.63;75.36;100608.34;5013625;28;20073;-61
2021/06/15 03:23:58;;;;;;;8.15;5.22;;;;;;;16.61;75.39;100607.56;5010106;28;20053;-58
2021/06/15 03:27:04;;;;;;;9.70;5.55;;;;;;;16.59;75.21;100605.94;5020748;28;20064;-55
2021/06/15 03:29:35;;;;;;;6.88;5.30;;;;;;;16.55;75.32;100615.97;5014709;28;20054;-58
2021/06/15 03:32:06;;;;;;;9.10;5.43;;;;;;;16.58;75.92;100612.25;5008716;28;20045;-59
2021/06/15 03:34:39;;;;;;;6.60;5.13;;;;;;;16.63;76.06;100608.34;5005503;28;20066;-59
2021/06/15 03:37:08;;;;;;;7.75;5.15;;;;;;;16.66;75.85;100621.50;5012716;28;20057;-58
2021/06/15 03:39:36;;;;;;;8.82;5.40;;;;;;;16.71;75.61;100622.03;5016766;28;20815;-60
2021/06/15 03:42:03;;;;;;;8.32;5.32;;;;;;;16.74;75.54;100620.97;5010031;28;20060;-58
2021/06/15 03:44:30;;;;;;;7.55;5.25;;;;;;;16.79;75.39;100616.16;5014266;28;20049;-60
2021/06/15 03:46:59;;;;;;;7.10;5.22;;;;;;;16.84;75.12;100617.53;5012906;28;20061;-57
2021/06/15 03:49:28;;;;;;;8.45;5.38;;;;;;;16.91;74.71;100623.31;5016664;28;20141;-57
2021/06/15 03:52:00;;;;;;;7.75;5.30;;;;;;;16.92;74.77;100630.38;5012126;28;20049;-61
2021/06/15 03:54:28;;;;;;;6.85;5.38;;;;;;;16.95;74.86;100626.66;5018914;28;21829;-57
2021/06/15 03:56:59;;;;;;;6.07;4.90;;;;;;;16.98;74.21;100631.78;5011346;28;20060;-62
2021/06/15 03:59:28;;;;;;;9.52;5.32;;;;;;;16.98;73.70;100629.97;5008375;28;20140;-60
2021/06/15 04:01:56;;;;;;;7.55;5.30;;;;;;;16.97;73.56;100625.59;5017781;28;20045;-57
2021/06/15 04:04:24;;;;;;;8.57;5.43;;;;;;;16.96;73.63;100625.69;5007735;28;20049;-59
2021/06/15 04:06:53;;;;;;;7.97;5.22;;;;;;;17.06;73.58;100627.59;5015589;28;20058;-59
2021/06/15 04:09:22;;;;;;;6.53;5.00;;;;;;;17.16;73.51;100631.34;5010171;28;20577;-59
2021/06/15 04:11:52;;;;;;;7.30;5.07;;;;;;;17.29;73.57;100635.84;5010176;28;20168;-59
2021/06/15 04:14:20;;;;;;;6.40;5.43;;;;;;;17.39;72.68;100628.84;5018242;28;20042;-60
2021/06/15 04:16:48;;;;;;;7.45;5.30;;;;;;;17.45;72.75;100629.28;5016614;28;20060;-57
2021/06/15 04:19:21;;;;;;;5.72;4.88;;;;;;;17.59;72.49;100635.47;5015098;28;20057;-61
2021/06/15 04:21:48;;;;;;;8.70;5.30;;;;;;;17.67;72.11;100633.97;5015374;28;20049;-58
2021/06/15 04:24:19;;;;;;;6.93;4.90;;;;;;;17.77;71.60;100636.84;5010969;28;20138;-61
2021/06/15 04:26:46;;;;;;;8.18;5.05;;;;;;;17.86;71.79;100633.47;5017946;28;20147;-61
2021/06/15 04:29:15;;;;;;;7.70;5.30;;;;;;;17.95;71.54;100634.63;5013760;28;20588;-59
2021/06/15 04:31:43;;;;;;;8.05;5.38;;;;;;;17.97;71.51;100636.22;5021921;28;20704;-61
2021/06/15 04:34:12;;;;;;;6.50;4.57;;;;;;;18.03;71.24;100635.78;5010969;28;20132;-60
2021/06/15 04:36:40;;;;;;;7.05;4.70;;;;;;;18.07;71.20;100647.97;5010339;28;20050;-63
2021/06/15 04:39:13;;;;;;;7.00;5.13;;;;;;;18.08;70.94;100644.34;5006133;28;20049;-63
2021/06/15 04:41:48;;;;;;;6.57;4.60;;;;;;;18.07;70.96;100647.13;5014941;28;20042;-61
2021/06/15 04:44:24;;;;;;;7.68;5.05;;;;;;;18.04;71.15;100650.88;5015022;28;20067;-61
2021/06/15 04:46:55;;;;;;;8.80;5.35;;;;;;;18.03;70.82;100651.84;5015383;28;20102;-59
2021/06/15 04:49:35;;;;;;;7.70;5.20;;;;;;;17.99;70.98;100650.34;5014471;28;20366;-59
2021/06/15 04:52:04;;;;;;;5.90;4.80;;;;;;;18.01;71.30;100656.47;5018869;28;20052;-62
2021/06/15 04:54:35;;;;;;;7.10;5.10;;;;;;;18.08;71.20;100654.19;5016249;28;20049;-63
2021/06/15 04:57:11;;;;;;;7.22;5.05;;;;;;;18.13;71.02;100652.00;5007188;28;20520;-62
2021/06/15 04:59:41;;;;;;;8.23;5.00;;;;;;;18.13;70.71;100652.88;5016192;28;20094;-60
2021/06/15 05:02:08;;;;;;;9.93;5.90;;;;;;;18.18;70.27;100655.22;5007883;28;20046;-62
2021/06/15 05:04:37;;;;;;;11.63;5.53;;;;;;;18.14;70.17;100656.41;5016647;28;20045;-60
2021/06/15 05:07:04;;;;;;;9.50;5.40;;;;;;;18.18;70.12;100660.56;5010201;28;20052;-63
2021/06/15 05:09:33;;;;;;;7.47;5.03;;;;;;;18.33;70.41;100658.56;5014560;28;20418;-60
2021/06/15 05:12:02;;;;;;;8.10;4.78;;;;;;;18.48;70.39;100665.47;5016781;28;20491;-60
2021/06/15 05:14:33;;;;;;;6.93;5.30;;;;;;;18.62;69.93;100667.97;5012928;28;20049;-64
2021/06/15 05:17:01;;;;;;;7.75;5.00;;;;;;;18.71;68.84;100672.66;5020408;28;20050;-61
2021/06/15 05:19:28;;;;;;;8.93;5.20;;;;;;;18.79;68.39;100669.38;5004439;28;20049;-62
2021/06/15 05:22:02;;;;;;;9.48;4.97;;;;;;;18.82;68.24;100670.00;5001680;28;20052;-63
2021/06/15 05:24:48;;;;;;;9.25;5.65;;;;;;;18.87;68.05;100672.34;5010929;28;20128;-63
2021/06/15 05:27:20;;;;;;;8.30;5.22;;;;;;;18.91;67.65;100677.34;5005393;28;20057;-59
2021/06/15 05:29:47;;;;;;;9.25;5.70;;;;;;;18.94;67.87;100670.88;5011549;28;20052;-59
2021/06/15 05:32:13;;;;;;;14.85;5.45;;;;;;;19.06;67.96;100680.66;5004699;28;20059;-57
2021/06/15 05:34:40;;;;;;;9.32;4.80;;;;;;;19.17;67.24;100686.06;5004302;28;20089;-61
2021/06/15 05:37:07;;;;;;;10.13;5.65;;;;;;;19.28;66.87;100677.16;5011737;28;20072;-60
2021/06/15 05:39:34;;;;;;;7.57;4.85;;;;;;;19.42;66.52;100681.44;5020819;28;20052;-60
2021/06/15 05:42:01;;;;;;;7.90;4.82;;;;;;;19.55;66.05;100683.06;5020060;28;20457;-60
2021/06/15 05:44:27;;;;;;;11.18;5.85;;;;;;;19.66;65.95;100686.75;5015314;28;20064;-61
2021/06/15 05:46:54;;;;;;;7.32;5.05;;;;;;;19.77;65.60;100682.19;5014807;28;20063;-55
2021/06/15 05:49:21;;;;;;;9.15;5.43;;;;;;;19.88;64.95;100686.69;5006675;28;20460;-57
2021/06/15 05:51:47;;;;;;;7.85;5.20;;;;;;;19.90;64.31;100688.28;5013301;28;20053;-62
2021/06/15 05:54:14;;;;;;;7.85;5.85;;;;;;;19.85;63.69;100685.13;5025797;28;20065;-63
2021/06/15 05:56:40;;;;;;;9.40;5.45;;;;;;;19.74;64.18;100687.81;5014945;28;20053;-57
2021/06/15 05:59:07;;;;;;;7.68;5.72;;;;;;;19.81;64.77;100689.06;5011745;28;20088;-57
2021/06/15 06:01:33;;;;;;;9.02;5.13;;;;;;;19.97;64.20;100699.41;5009494;28;20045;-55
2021/06/15 06:04:04;;;;;;;10.07;5.60;;;;;;;20.14;63.21;100688.13;5011782;28;20135;-59
2021/06/15 06:09:15;;;;;;;9.00;5.25;;;;;;;21.85;57.96;100685.09;5012752;28;20049;-54
2021/06/15 06:11:42;;;;;;;6.10;4.55;;;;;;;23.81;52.55;100687.38;5011417;28;20080;-52
2021/06/15 06:14:09;;;;;;;9.13;4.60;;;;;;;25.54;46.40;100685.09;5013313;28;20056;-56
2021/06/15 06:16:36;;;;;;;8.57;5.18;;;;;;;26.72;43.24;100685.00;5016079;28;20049;-57
2021/06/15 06:19:13;;;;;;;6.30;3.90;;;;;;;28.05;41.76;100686.28;5025746;28;20138;-58
2021/06/15 06:21:40;;;;;;;9.93;4.65;;;;;;;28.79;38.71;100680.22;5003957;28;20057;-60
2021/06/15 06:24:07;;;;;;;8.55;3.50;;;;;;;29.77;37.40;100688.25;5014726;28;20151;-59
2021/06/15 06:26:34;;;;;;;7.82;4.28;;;;;;;30.38;35.59;100696.19;5011026;28;20056;-55
2021/06/15 06:29:01;;;;;;;7.57;3.58;;;;;;;31.08;34.46;100693.53;5010267;28;20096;-56
2021/06/15 06:31:27;;;;;;;7.65;3.80;;;;;;;31.50;32.60;100703.53;5020144;28;20052;-57
2021/06/15 06:33:54;;;;;;;5.63;4.00;;;;;;;31.40;33.73;100694.84;5009786;28;20049;-60
2021/06/15 06:36:20;;;;;;;10.38;4.22;;;;;;;31.87;32.78;100706.94;5009744;28;20050;-57
2021/06/15 06:38:52;;;;;;;5.85;3.67;;;;;;;32.10;32.60;100704.75;5018330;28;20053;-55
2021/06/15 06:41:19;;;;;;;5.32;3.47;;;;;;;32.03;31.86;100703.88;5008878;28;20057;-63
2021/06/15 06:43:47;;;;;;;7.47;3.83;;;;;;;31.56;31.96;100701.91;5019936;28;20045;-56
2021/06/15 06:46:13;;;;;;;6.63;3.95;;;;;;;31.12;33.97;100702.22;5010283;28;20060;-57
2021/06/15 06:48:40;;;;;;;6.88;3.75;;;;;;;30.56;34.35;100702.09;5009261;28;20049;-62
2021/06/15 06:51:07;;;;;;;7.85;3.45;;;;;;;30.71;34.10;100694.66;5013008;28;20053;-60
2021/06/15 06:53:34;;;;;;;7.15;3.83;;;;;;;30.81;33.37;100699.81;5010769;28;20041;-55
2021/06/15 06:56:01;;;;;;;6.43;3.50;;;;;;;30.52;34.52;100698.88;5024541;28;20107;-56
2021/06/15 06:58:27;;;;;;;7.10;3.88;;;;;;;30.33;33.81;100696.78;5011007;28;20057;-56
2021/06/15 07:00:54;;;;;;;7.95;3.97;;;;;;;29.90;34.83;100701.25;5014962;28;20045;-61
2021/06/15 07:03:21;;;;;;;5.53;3.58;;;;;;;29.76;35.49;100699.38;5014688;28;20094;-58
2021/06/15 07:05:47;;;;;;;5.45;3.88;;;;;;;29.87;35.06;100697.03;4996338;28;20755;-54
2021/06/15 07:08:14;;;;;;;5.07;3.90;;;;;;;30.12;35.11;100691.25;5010824;28;20535;-54
2021/06/15 07:10:40;;;;;;;6.72;3.10;;;;;;;30.52;34.82;100695.31;5010988;28;20140;-56
2021/06/15 07:13:07;;;;;;;7.80;3.35;;;;;;;30.66;34.85;100692.53;5017304;28;20052;-56
2021/06/15 07:15:33;;;;;;;7.80;3.80;;;;;;;30.79;34.10;100689.06;5011882;28;20053;-55
2021/06/15 07:18:00;;;;;;;9.63;4.95;;;;;;;30.22;33.82;100700.00;5015548;28;20045;-56
2021/06/15 07:20:26;;;;;;;7.47;3.83;;;;;;;30.10;35.82;100699.63;5025410;28;20052;-57
2021/06/15 07:22:53;;;;;;;7.38;4.15;;;;;;;30.34;34.36;100702.03;5012065;28;20428;-60
2021/06/15 07:25:20;;;;;;;7.75;3.95;;;;;;;30.16;35.06;100698.88;5024109;28;20041;-57
2021/06/15 07:27:47;;;;;;;5.47;3.88;;;;;;;29.78;34.82;100700.88;5011233;28;20076;-55
2021/06/15 07:30:15;;;;;;;7.38;3.85;;;;;;;29.61;35.81;100700.22;5011550;28;20103;-53
2021/06/15 07:32:41;;;;;;;14.35;3.85;;;;;;;29.64;35.46;100696.28;5012302;28;20505;-56
2021/06/15 07:35:08;;;;;;;7.20;3.40;;;;;;;29.13;36.19;100697.97;5003886;28;20054;-55
2021/06/15 07:37:35;;;;;;;5.25;3.55;;;;;;;28.85;36.07;100693.09;5017341;28;20227;-54
2021/06/15 07:40:03;;;;;;;8.15;3.88;;;;;;;28.81;37.02;100699.94;5014916;28;20428;-57
2021/06/15 07:42:30;;;;;;;5.13;3.20;;;;;;;28.86;37.77;100702.97;5015234;28;20049;-55
2021/06/15 07:44:56;;;;;;;5.90;3.70;;;;;;;29.28;36.95;100698.84;5015351;28;20049;-59
2021/06/15 07:47:23;;;;;;;4.38;3.42;;;;;;;29.22;36.54;100696.88;5006356;28;21215;-59
2021/06/15 07:50:09;;;;;;;7.20;3.50;;;;;;;29.52;36.50;100698.63;5018926;28;20045;-60
2021/06/15 07:52:35;;;;;;;7.07;3.53;;;;;;;29.59;35.49;100702.28;5005080;28;20110;-63
2021/06/15 07:55:02;;;;;;;5.30;3.40;;;;;;;29.58;36.58;100705.22;5009113;28;20057;-54
2021/06/15 07:57:28;;;;;;;4.55;3.30;;;;;;;29.68;36.39;100703.06;5015279;28;20057;-60
2021/06/15 07:59:55;;;;;;;7.82;3.63;;;;;;;29.76;36.74;100713.00;5006318;28;20053;-56
2021/06/15 08:02:21;;;;;;;6.00;3.40;;;;;;;29.87;35.99;100693.44;5004263;28;20056;-60
2021/06/15 08:04:48;;;;;;;6.22;3.35;;;;;;;29.65;35.44;100704.28;5010888;28;20132;-57
2021/06/15 08:07:15;;;;;;;5.28;3.53;;;;;;;29.59;36.05;100693.28;5009528;28;20057;-59
2021/06/15 08:09:41;;;;;;;3.67;3.28;;;;;;;29.32;36.26;100684.66;5012178;28;20508;-59
2021/06/15 08:12:08;;;;;;;7.22;3.53;;;;;;;28.80;36.57;100689.25;5008367;28;20045;-61
2021/06/15 08:14:35;;;;;;;5.28;3.33;;;;;;;28.57;37.23;100694.66;5008789;28;20049;-60
2021/06/15 08:17:02;;;;;;;4.90;3.38;;;;;;;28.26;37.38;100687.38;5016573;28;20072;-58
2021/06/15 08:19:29;;;;;;;6.22;3.58;;;;;;;27.96;38.23;100688.19;4999400;28;21868;-61
2021/06/15 08:21:55;;;;;;;6.78;4.13;;;;;;;27.56;38.56;100681.00;5018852;28;20059;-61
2021/06/15 08:24:22;;;;;;;5.88;3.63;;;;;;;27.29;39.66;100678.69;5016145;28;20046;-61
2021/06/15 08:26:48;;;;;;;6.82;3.60;;;;;;;27.08;39.83;100671.94;5024572;28;20049;-60
2021/06/15 08:29:15;;;;;;;6.10;3.28;;;;;;;26.74;40.32;100679.41;5014706;28;20053;-57
2021/06/15 08:31:41;;;;;;;5.10;3.30;;;;;;;26.65;42.59;100670.38;5016525;28;20529;-58
2021/06/15 08:34:08;;;;;;;6.72;3.45;;;;;;;26.69;40.78;100684.50;5018563;28;20046;-56
2021/06/15 08:36:36;;;;;;;5.13;3.42;;;;;;;26.60;41.97;100677.38;5022718;28;20149;-56
2021/06/15 08:39:08;;;;;;;3.80;3.50;;;;;;;26.65;42.00;100678.53;5017829;28;20068;-58
2021/06/15 08:41:36;;;;;;;6.88;3.10;;;;;;;26.78;40.70;100676.16;5026852;28;20523;-57
2021/06/15 08:44:04;;;;;;;5.18;3.40;;;;;;;26.74;41.28;100677.53;5016343;28;20046;-58
2021/06/15 08:46:31;;;;;;;5.88;3.10;;;;;;;26.91;42.33;100686.53;5023857;28;20080;-54
2021/06/15 08:49:01;;;;;;;5.45;3.53;;;;;;;27.06;41.88;100673.13;5021159;28;20056;-56
2021/06/15 08:51:27;;;;;;;5.57;3.15;;;;;;;27.07;40.60;100680.28;5028218;28;20050;-57
2021/06/15 08:54:03;;;;;;;10.68;3.50;;;;;;;27.02;40.94;100677.22;5022519;28;20041;-60
2021/06/15 08:56:32;;;;;;;4.95;3.15;;;;;;;26.72;41.56;100676.84;5022061;28;20425;-61
2021/06/15 08:59:16;;;;;;;6.60;3.70;;;;;;;26.58;41.88;100680.25;5015807;28;20180;-56
2021/06/15 09:01:48;;;;;;;4.55;3.65;;;;;;;26.53;42.27;100671.75;5019817;28;20049;-58
2021/06/15 09:04:14;;;;;;;7.43;4.00;;;;;;;26.54;42.23;100674.31;5019627;28;20045;-59
2021/06/15 09:06:41;;;;;;;6.63;3.40;;;;;;;26.44;43.39;100667.34;5025124;28;20120;-57
2021/06/15 09:09:08;;;;;;;5.22;3.33;;;;;;;26.59;44.22;100673.81;5023704;28;20167;-57
2021/06/15 09:11:55;;;;;;;5.55;3.58;;;;;;;26.77;42.99;100670.88;5025334;28;20049;-59
2021/06/15 09:14:44;;;;;;;5.32;3.50;;;;;;;26.96;42.07;100669.72;5016024;28;20041;-58
2021/06/15 09:17:13;;;;;;;5.45;3.28;;;;;;;26.80;42.58;100659.69;5026024;28;20049;-58
2021/06/15 09:19:41;;;;;;;7.32;3.90;;;;;;;26.48;42.61;100655.09;5029201;28;20109;-58
2021/06/15 09:22:29;;;;;;;6.57;3.80;;;;;;;26.36;43.73;100660.00;5028559;28;20121;-58
2021/06/15 09:24:56;;;;;;;5.55;3.58;;;;;;;26.48;42.93;100668.69;5025179;28;20610;-59
2021/06/15 09:27:33;;;;;;;7.35;3.53;;;;;;;26.59;42.67;100664.81;5031067;28;20149;-59
2021/06/15 09:30:05;;;;;;;4.15;3.20;;;;;;;26.73;42.13;100664.97;5024705;28;20054;-60
2021/06/15 09:32:44;;;;;;;6.90;3.03;;;;;;;26.76;42.46;100661.06;5028137;28;20053;-56
2021/06/15 09:35:15;;;;;;;4.95;3.30;;;;;;;26.81;42.57;100658.69;5014513;28;20104;-58
2021/06/15 09:37:47;;;;;;;7.47;3.80;;;;;;;26.50;41.74;100663.94;5024332;28;20061;-61
2021/06/15 09:40:18;;;;;;;4.32;3.55;;;;;;;26.24;42.66;100661.31;5018171;28;20080;-58
2021/06/15 09:42:53;;;;;;;4.35;3.67;;;;;;;26.00;43.44;100656.66;5027184;28;20053;-58
2021/06/15 09:45:26;;;;;;;6.40;3.70;;;;;;;25.93;43.56;100660.22;5021412;28;20049;-58
2021/06/15 09:47:53;;;;;;;5.30;3.40;;;;;;;25.92;44.16;100655.81;5014712;28;20568;-57
2021/06/15 09:50:22;;;;;;;5.57;3.92;;;;;;;25.96;43.65;100655.31;5015658;28;21094;-55
2021/06/15 09:52:49;;;;;;;4.93;3.40;;;;;;;26.03;42.80;100659.06;5019647;28;20048;-59
2021/06/15 09:55:17;;;;;;;5.78;3.70;;;;;;;26.16;44.15;100661.28;5017176;28;20056;-58
2021/06/15 09:57:48;;;;;;;5.15;3.20;;;;;;;26.27;44.11;100652.00;5017226;28;20513;-58
2021/06/15 10:00:23;;;;;;;7.25;3.45;;;;;;;26.36;44.28;100653.72;5027229;28;20060;-58
2021/06/15 10:02:58;;;;;;;7.72;3.55;;;;;;;26.50;43.75;100650.34;5013892;28;20064;-59
2021/06/15 10:05:31;;;;;;;7.40;3.85;;;;;;;26.65;42.84;100654.09;5015539;28;20450;-57
2021/06/15 10:08:03;;;;;;;4.82;3.60;;;;;;;26.74;43.13;100646.81;5020605;28;20057;-57
2021/06/15 10:10:42;;;;;;;6.28;3.53;;;;;;;26.89;41.32;100648.66;5023273;28;20053;-59
2021/06/15 10:13:10;;;;;;;4.80;3.15;;;;;;;26.97;40.02;100652.41;5014102;28;20761;-56
2021/06/15 10:15:39;;;;;;;5.53;3.28;;;;;;;27.00;40.85;100644.78;5026708;28;20053;-56
2021/06/15 10:18:07;;;;;;;5.65;3.03;;;;;;;27.06;40.66;100640.53;5024168;28;20053;-55
2021/06/15 10:20:35;;;;;;;4.72;3.30;;;;;;;27.19;40.48;100646.28;5018876;28;20049;-59
2021/06/15 10:23:03;;;;;;;4.65;3.50;;;;;;;27.34;39.15;100639.09;5025270;28;20053;-58
2021/06/15 10:25:32;;;;;;;6.43;3.28;;;;;;;27.47;38.46;100643.97;5015556;28;20829;-58
2021/06/15 10:28:07;;;;;;;7.43;3.65;;;;;;;27.55;39.04;100646.66;5023903;28;20045;-58
2021/06/15 10:30:36;;;;;;;5.50;3.03;;;;;;;27.57;36.89;100653.66;5025233;28;20504;-58
2021/06/15 10:33:13;;;;;;;10.23;3.60;;;;;;;27.55;35.43;100641.22;5021256;28;20519;-58
2021/06/15 10:35:48;;;;;;;7.68;3.47;;;;;;;27.50;37.50;100641.75;5025383;28;20050;-57
2021/06/15 10:38:26;;;;;;;5.20;3.30;;;;;;;27.65;38.89;100635.63;5015497;28;20064;-59
2021/06/15 10:40:56;;;;;;;5.32;3.20;;;;;;;27.70;38.91;100631.34;5020395;28;20045;-58
2021/06/15 10:43:43;;;;;;;5.57;3.08;;;;;;;27.78;38.26;100627.72;5019812;28;20045;-57
2021/06/15 10:46:13;;;;;;;6.68;3.28;;;;;;;27.85;36.59;100626.00;5022464;28;20060;-58
2021/06/15 10:48:45;;;;;;;7.35;3.25;;;;;;;27.75;35.28;100628.94;5017955;28;20065;-56
2021/06/15 10:51:40;;;;;;;5.65;3.33;;;;;;;27.74;36.10;100639.97;5020130;28;20439;-57
2021/06/15 10:54:27;;;;;;;5.03;3.60;;;;;;;27.81;36.29;100635.53;4994515;28;20045;-58
2021/06/15 10:57:21;;;;;;;5.85;3.53;;;;;;;27.90;37.87;100629.00;5025995;28;20156;-62
2021/06/15 11:00:13;;;;;;;3.55;3.20;;;;;;;28.02;37.07;100634.94;5019216;28;20046;-58
2021/06/15 11:03:19;;;;;;;4.80;3.72;;;;;;;28.11;35.23;100620.22;5024319;28;20052;-56
2021/06/15 11:05:59;;;;;;;4.88;3.63;;;;;;;28.20;35.35;100617.28;5027747;28;20465;-59
2021/06/15 11:08:30;;;;;;;7.05;3.42;;;;;;;28.33;35.54;100613.13;5023819;28;20463;-57
2021/06/15 11:11:02;;;;;;;7.60;3.75;;;;;;;28.44;34.91;100616.28;5026652;28;20417;-58
2021/06/15 11:13:43;;;;;;;4.95;3.70;;;;;;;28.48;34.68;100622.22;5017804;28;20050;-58
2021/06/15 11:16:26;;;;;;;6.30;3.67;;;;;;;28.60;34.19;100607.13;5016271;28;20049;-58
2021/06/15 11:19:08;;;;;;;6.80;3.70;;;;;;;28.74;34.05;100608.19;5002129;28;20065;-56
2021/06/15 11:21:44;;;;;;;6.22;3.92;;;;;;;28.77;33.49;100602.38;5021821;28;20049;-57
2021/06/15 11:24:20;;;;;;;7.47;3.38;;;;;;;28.84;33.95;100606.91;5020634;28;20053;-59
2021/06/15 11:26:52;;;;;;;6.50;3.78;;;;;;;28.82;33.14;100602.69;5014907;28;20703;-59
2021/06/15 11:29:39;;;;;;;5.63;3.25;;;;;;;28.87;33.28;100601.09;5019466;28;20053;-60
2021/06/15 11:32:26;;;;;;;7.25;3.67;;;;;;;28.91;32.84;100596.13;5004786;28;20525;-58
2021/06/15 11:34:53;;;;;;;4.30;3.63;;;;;;;28.97;32.98;100601.66;5028770;28;20054;-58
2021/06/15 11:37:21;;;;;;;5.88;3.55;;;;;;;29.03;32.25;100588.34;5013217;28;20050;-58
2021/06/15 11:39:51;;;;;;;5.43;3.72;;;;;;;29.07;32.80;100595.97;5015603;28;20152;-57
2021/06/15 11:42:24;;;;;;;5.10;3.60;;;;;;;29.08;33.24;100592.19;5008022;28;20054;-60
2021/06/15 11:45:01;;;;;;;7.63;3.70;;;;;;;29.16;33.60;100583.06;5019226;28;20042;-58